Time;durP1;ratioP1;P1;durP2;ratioP2;P2;SDS_P1;SDS_P2;PMS_P1;PMS_P2;Temp;Humidity;BMP_temperature;BMP_pressure;BME280_temperature;BME280_humidity;BME280_pressure;Samples;Min_cycle;Max_cycle;Signal;HPM_P1;HPM_P2
2023/07/29 00:03:32;;;;;;;2.80;1.90;;;;;;;17.56;100.00;100689.59;10296138;28;20121;-67
2023/07/29 00:08:32;;;;;;;2.92;2.10;;;;;;;17.42;100.00;100680.84;10279247;28;20145;-68
2023/07/29 00:13:32;;;;;;;1.75;1.65;;;;;;;17.27;100.00;100681.44;10296658;28;20045;-68
2023/07/29 00:18:33;;;;;;;1.73;1.58;;;;;;;17.20;100.00;100678.03;10295786;28;20039;-68
2023/07/29 00:23:33;;;;;;;5.20;2.17;;;;;;;17.13;100.00;100688.28;10263774;28;20031;-68
2023/07/29 00:28:34;;;;;;;1.85;1.75;;;;;;;17.04;100.00;100681.53;10277687;28;20061;-67
2023/07/29 00:33:34;;;;;;;7.18;2.35;;;;;;;17.00;100.00;100681.22;10280164;28;20486;-68
2023/07/29 00:38:34;;;;;;;2.85;2.25;;;;;;;16.93;100.00;100678.63;10279904;28;20086;-68
2023/07/29 00:43:35;;;;;;;1.83;1.73;;;;;;;16.96;100.00;100678.13;10295801;28;20395;-68
2023/07/29 00:48:35;;;;;;;2.45;1.65;;;;;;;16.95;100.00;100673.75;10296753;28;20062;-68
2023/07/29 00:53:36;;;;;;;1.52;1.42;;;;;;;17.02;100.00;100667.31;10277519;28;20039;-68
2023/07/29 00:58:36;;;;;;;2.50;2.33;;;;;;;16.99;100.00;100668.63;10293529;28;20043;-67
2023/07/29 01:03:37;;;;;;;3.28;1.88;;;;;;;17.00;100.00;100670.28;10294051;28;20387;-68
2023/07/29 01:08:53;;;;;;;3.95;2.97;;;;;;;17.03;100.00;100663.47;10294771;28;20039;-67
2023/07/29 01:13:58;;;;;;;2.63;2.20;;;;;;;17.02;100.00;100662.66;10293621;28;20118;-68
2023/07/29 01:18:59;;;;;;;6.10;3.33;;;;;;;17.00;100.00;100648.38;10277068;28;20445;-68
2023/07/29 01:24:00;;;;;;;3.05;2.58;;;;;;;16.96;100.00;100650.78;10292285;28;20030;-67
2023/07/29 01:29:00;;;;;;;8.90;2.75;;;;;;;16.92;100.00;100654.28;10294355;28;20054;-68
2023/07/29 01:34:25;;;;;;;5.82;2.20;;;;;;;16.85;100.00;100642.66;10294352;28;20046;-68
2023/07/29 01:39:25;;;;;;;2.90;2.42;;;;;;;16.81;100.00;100639.56;10276463;28;20105;-68
2023/07/29 01:44:25;;;;;;;2.67;2.22;;;;;;;16.77;100.00;100637.56;10259223;28;20081;-68
2023/07/29 01:49:26;;;;;;;4.95;2.63;;;;;;;16.73;100.00;100634.47;10275263;28;20046;-67
2023/07/29 01:54:26;;;;;;;6.75;2.58;;;;;;;16.70;100.00;100634.97;10293699;28;20039;-68
2023/07/29 01:59:27;;;;;;;2.67;2.47;;;;;;;16.68;100.00;100635.19;10274868;28;20467;-68
2023/07/29 02:04:27;;;;;;;5.28;2.28;;;;;;;16.70;100.00;100630.31;10293171;28;20042;-68
2023/07/29 02:09:27;;;;;;;2.97;2.53;;;;;;;16.71;100.00;100612.81;10292820;28;20093;-68
2023/07/29 02:14:28;;;;;;;7.30;2.72;;;;;;;16.73;100.00;100620.81;10276430;28;20031;-68
2023/07/29 02:19:28;;;;;;;6.35;2.60;;;;;;;16.73;100.00;100615.31;10291816;28;20042;-68
2023/07/29 02:24:29;;;;;;;4.35;2.85;;;;;;;16.71;100.00;100612.00;10292157;28;20035;-68
2023/07/29 02:29:30;;;;;;;7.97;2.75;;;;;;;16.69;100.00;100612.25;10275596;28;20459;-68
2023/07/29 02:34:30;;;;;;;12.13;3.38;;;;;;;16.69;100.00;100600.50;10259473;28;20051;-68
2023/07/29 02:39:31;;;;;;;2.95;2.55;;;;;;;16.70;100.00;100594.78;10260063;28;20469;-68
2023/07/29 02:44:31;;;;;;;6.53;3.08;;;;;;;16.69;100.00;100584.09;10291826;28;20067;-68
2023/07/29 02:49:32;;;;;;;5.78;3.67;;;;;;;16.69;100.00;100595.03;10292120;28;20129;-68
2023/07/29 02:54:32;;;;;;;7.30;3.22;;;;;;;16.68;100.00;100596.91;10299663;28;20085;-68
2023/07/29 02:59:32;;;;;;;2.60;2.35;;;;;;;16.75;100.00;100588.59;10299680;28;20039;-68
2023/07/29 03:04:33;;;;;;;4.88;2.97;;;;;;;16.86;100.00;100601.38;10299147;28;20077;-68
2023/07/29 03:09:34;;;;;;;6.43;2.97;;;;;;;16.96;100.00;100615.22;10265650;28;20039;-68
2023/07/29 03:14:35;;;;;;;2.20;2.00;;;;;;;17.11;100.00;100608.38;10297514;28;20051;-68
2023/07/29 03:19:36;;;;;;;3.10;2.45;;;;;;;17.21;100.00;100605.81;10299637;28;20375;-68
2023/07/29 03:24:36;;;;;;;2.45;2.25;;;;;;;17.27;100.00;100602.06;10281333;28;20041;-68
2023/07/29 03:29:37;;;;;;;2.22;2.03;;;;;;;17.28;100.00;100600.97;10298038;28;20438;-68
2023/07/29 03:34:38;;;;;;;6.75;2.95;;;;;;;17.30;100.00;100617.16;10298535;28;20043;-68
2023/07/29 03:39:38;;;;;;;2.78;2.17;;;;;;;17.33;100.00;100625.72;10280732;28;20061;-68
2023/07/29 03:44:39;;;;;;;7.13;3.30;;;;;;;17.34;100.00;100621.88;10297345;28;20105;-68
2023/07/29 03:49:39;;;;;;;2.78;2.20;;;;;;;17.35;100.00;100603.56;10297216;28;20063;-68
2023/07/29 03:54:40;;;;;;;8.57;3.08;;;;;;;17.30;100.00;100611.69;10279889;28;20093;-68
2023/07/29 03:59:41;;;;;;;3.33;2.63;;;;;;;17.28;100.00;100619.31;10279572;28;20387;-68
2023/07/29 04:04:43;;;;;;;3.58;3.22;;;;;;;17.30;100.00;100600.75;10295767;28;20035;-68
2023/07/29 04:09:44;;;;;;;2.70;2.50;;;;;;;17.17;100.00;100594.53;10297468;28;20102;-68
2023/07/29 04:14:44;;;;;;;8.00;4.10;;;;;;;17.13;100.00;100601.59;10263878;28;20034;-68
2023/07/29 04:19:45;;;;;;;4.05;3.70;;;;;;;17.20;100.00;100609.63;10279000;28;20451;-68
2023/07/29 04:24:45;;;;;;;3.83;3.35;;;;;;;17.28;100.00;100617.41;10297102;28;20050;-68
2023/07/29 04:29:46;;;;;;;11.68;4.65;;;;;;;17.31;100.00;100614.16;10301488;28;20054;-68
2023/07/29 04:34:47;;;;;;;5.28;3.88;;;;;;;17.31;100.00;100611.44;10299719;28;20047;-68
2023/07/29 04:39:47;;;;;;;7.10;4.22;;;;;;;17.32;100.00;100623.19;10279113;28;20058;-68
2023/07/29 04:44:47;;;;;;;6.68;4.00;;;;;;;17.28;100.00;100630.25;10262000;28;20041;-68
2023/07/29 04:49:48;;;;;;;6.57;4.32;;;;;;;17.33;100.00;100631.19;10296287;28;20085;-68
2023/07/29 04:54:48;;;;;;;5.57;4.30;;;;;;;17.36;100.00;100622.47;10294513;28;20038;-68
2023/07/29 04:59:49;;;;;;;8.27;4.00;;;;;;;17.37;100.00;100612.34;10295925;28;20435;-68
2023/07/29 05:04:49;;;;;;;7.60;4.10;;;;;;;17.41;100.00;100618.97;10262181;28;20035;-68
2023/07/29 05:09:49;;;;;;;9.10;3.28;;;;;;;17.48;100.00;100627.00;10277473;28;20041;-68
2023/07/29 05:14:50;;;;;;;8.18;4.60;;;;;;;17.58;100.00;100606.13;10295180;28;20458;-68
2023/07/29 05:19:50;;;;;;;7.55;4.65;;;;;;;17.65;100.00;100589.50;10276646;28;20129;-68
2023/07/29 05:24:50;;;;;;;7.53;4.28;;;;;;;17.64;100.00;100605.13;10277660;28;20038;-68
2023/07/29 05:29:51;;;;;;;8.27;4.60;;;;;;;17.75;100.00;100610.72;10293531;28;20090;-68
2023/07/29 05:34:51;;;;;;;9.82;5.10;;;;;;;17.91;100.00;100606.31;10293553;28;20573;-68
2023/07/29 05:39:52;;;;;;;4.88;3.72;;;;;;;17.97;100.00;100608.88;10294383;28;20057;-68
2023/07/29 05:44:52;;;;;;;4.28;3.63;;;;;;;18.08;100.00;100604.34;10293785;28;20085;-68
2023/07/29 05:49:52;;;;;;;5.30;3.97;;;;;;;18.12;100.00;100617.31;10292928;28;20042;-68
2023/07/29 05:54:53;;;;;;;4.80;4.07;;;;;;;18.20;100.00;100618.75;10275283;28;20042;-68
2023/07/29 05:59:53;;;;;;;7.22;3.58;;;;;;;18.25;100.00;100618.84;10292876;28;20427;-68
2023/07/29 06:04:54;;;;;;;8.73;3.03;;;;;;;18.27;100.00;100627.59;10274831;28;20389;-68
2023/07/29 06:09:55;;;;;;;11.95;3.05;;;;;;;18.29;100.00;100616.41;10293384;28;20035;-69
2023/07/29 06:14:55;;;;;;;3.80;2.83;;;;;;;18.12;100.00;100621.94;10292260;28;20071;-69
2023/07/29 06:19:56;;;;;;;4.30;2.88;;;;;;;18.06;100.00;100629.28;10292533;28;20059;-69
2023/07/29 06:24:56;;;;;;;3.20;2.92;;;;;;;18.04;100.00;100625.13;10294621;28;20027;-69
2023/07/29 06:29:56;;;;;;;7.93;4.28;;;;;;;18.16;100.00;100617.63;10283460;28;20490;-68
2023/07/29 06:34:57;;;;;;;7.65;3.38;;;;;;;18.43;100.00;100620.41;10300683;28;20031;-69
2023/07/29 06:39:57;;;;;;;7.55;2.17;;;;;;;18.72;100.00;100620.16;10250755;28;20086;-69
2023/07/29 06:44:57;;;;;;;6.28;4.07;;;;;;;19.91;100.00;100612.66;10282875;28;20440;-69
2023/07/29 06:49:58;;;;;;;1.88;1.77;;;;;;;20.24;100.00;100618.88;10300166;28;20129;-70
2023/07/29 06:54:58;;;;;;;5.43;2.53;;;;;;;19.42;100.00;100623.84;10282065;28;20035;-68
2023/07/29 06:59:59;;;;;;;2.25;2.15;;;;;;;20.93;100.00;100623.19;10299935;28;20126;-68
2023/07/29 07:04:59;;;;;;;4.53;2.72;;;;;;;22.04;100.00;100625.03;10298482;28;20086;-68
2023/07/29 07:09:59;;;;;;;2.15;2.05;;;;;;;22.60;100.00;100621.25;10299311;28;20046;-68
2023/07/29 07:15:00;;;;;;;1.80;1.70;;;;;;;23.43;100.00;100622.34;10299047;28;20052;-68
2023/07/29 07:20:01;;;;;;;2.58;2.22;;;;;;;23.41;100.00;100625.38;10298974;28;20039;-68
2023/07/29 07:25:01;;;;;;;2.42;2.22;;;;;;;22.44;100.00;100634.31;10298269;28;20059;-68
2023/07/29 07:30:02;;;;;;;2.13;1.95;;;;;;;22.23;100.00;100632.75;10297588;28;20585;-68
2023/07/29 07:35:03;;;;;;;9.15;2.05;;;;;;;22.35;100.00;100629.66;10281669;28;20034;-68
2023/07/29 07:40:04;;;;;;;3.65;1.92;;;;;;;21.77;100.00;100638.38;10281276;28;20150;-68
2023/07/29 07:45:05;;;;;;;3.33;1.73;;;;;;;21.52;100.00;100648.31;10297347;28;20054;-68
2023/07/29 07:50:06;;;;;;;9.20;2.80;;;;;;;21.78;100.00;100649.09;10280974;28;20054;-68
2023/07/29 07:55:06;;;;;;;4.72;2.00;;;;;;;22.37;100.00;100649.53;10296984;28;20043;-68
2023/07/29 08:00:07;;;;;;;8.30;1.60;;;;;;;23.21;100.00;100647.66;10296719;28;20027;-68
2023/07/29 08:05:08;;;;;;;5.10;1.92;;;;;;;22.66;100.00;100652.44;10296957;28;20045;-68
2023/07/29 08:10:08;;;;;;;2.20;2.00;;;;;;;22.60;100.00;100659.91;10296675;28;20443;-68
2023/07/29 08:15:09;;;;;;;3.30;2.05;;;;;;;22.95;100.00;100669.13;10295489;28;20045;-68
2023/07/29 08:20:09;;;;;;;4.18;1.48;;;;;;;22.72;100.00;100676.13;10295188;28;20047;-67
2023/07/29 08:25:10;;;;;;;4.13;2.15;;;;;;;23.80;100.00;100660.44;10293874;28;20039;-68
2023/07/29 08:30:10;;;;;;;4.50;2.25;;;;;;;24.44;100.00;100663.91;10294692;28;20126;-68
2023/07/29 08:35:11;;;;;;;4.15;2.20;;;;;;;24.98;100.00;100662.59;10295340;28;20101;-67
2023/07/29 08:40:12;;;;;;;2.30;1.80;;;;;;;22.99;100.00;100675.72;10294993;28;20039;-68
2023/07/29 08:45:13;;;;;;;2.63;2.08;;;;;;;22.16;100.00;100670.84;10294284;28;20038;-67
2023/07/29 08:50:13;;;;;;;6.88;2.55;;;;;;;21.50;100.00;100680.00;10276841;28;20047;-67
2023/07/29 08:55:14;;;;;;;2.47;1.98;;;;;;;20.25;100.00;100681.00;10278524;28;20154;-67
2023/07/29 09:00:14;;;;;;;3.70;2.50;;;;;;;19.69;100.00;100676.81;10294550;28;20031;-68
2023/07/29 09:05:14;;;;;;;6.97;2.40;;;;;;;19.95;100.00;100677.00;10276798;28;20022;-68
2023/07/29 09:10:15;;;;;;;9.75;2.25;;;;;;;19.86;100.00;100676.66;10277981;28;20026;-69
2023/07/29 09:15:42;;;;;;;22.60;3.58;;;;;;;20.15;100.00;100666.09;10295217;28;20039;-68
2023/07/29 09:20:42;;;;;;;5.68;2.35;;;;;;;20.50;100.00;100674.81;10292845;28;20398;-68
2023/07/29 09:25:43;;;;;;;3.92;3.22;;;;;;;20.31;100.00;100683.50;10276079;28;20035;-68
2023/07/29 09:30:45;;;;;;;2.85;2.65;;;;;;;20.49;100.00;100673.97;10277030;28;20379;-68
2023/07/29 09:35:46;;;;;;;5.20;2.92;;;;;;;20.77;100.00;100677.38;10293715;28;20118;-68
2023/07/29 09:40:46;;;;;;;3.15;2.33;;;;;;;20.85;100.00;100665.84;10292395;28;20031;-68
2023/07/29 09:45:46;;;;;;;2.10;1.75;;;;;;;20.64;100.00;100674.06;10293921;28;20447;-68
2023/07/29 09:50:47;;;;;;;1.83;1.73;;;;;;;21.06;100.00;100659.31;10293259;28;20042;-68
2023/07/29 09:55:51;;;;;;;6.25;2.00;;;;;;;21.19;100.00;100668.13;10292805;28;20039;-68
2023/07/29 10:00:51;;;;;;;3.90;2.10;;;;;;;20.92;100.00;100671.09;10291195;28;20398;-68
2023/07/29 10:05:52;;;;;;;2.45;1.73;;;;;;;20.54;100.00;100682.25;10292312;28;20114;-69
2023/07/29 10:10:52;;;;;;;4.63;1.38;;;;;;;19.91;100.00;100684.09;10275717;28;20439;-69
2023/07/29 10:15:53;;;;;;;2.58;1.90;;;;;;;19.58;100.00;100694.28;10291198;28;20054;-69
2023/07/29 10:20:54;;;;;;;2.30;1.45;;;;;;;19.64;100.00;100700.69;10292253;28;20118;-70
2023/07/29 10:26:06;;;;;;;0.90;0.90;;;;;;;19.59;100.00;100703.34;10275055;28;20119;-71
2023/07/29 10:31:06;;;;;;;0.70;0.70;;;;;;;19.57;100.00;100698.13;10291668;28;20468;-71
2023/07/29 10:36:07;;;;;;;1.92;1.45;;;;;;;19.54;100.00;100704.13;10275242;28;20058;-70
2023/07/29 10:41:07;;;;;;;3.00;1.00;;;;;;;19.48;100.00;100699.69;10258718;28;20063;-69
2023/07/29 10:46:21;;;;;;;1.85;1.42;;;;;;;20.17;100.00;100701.59;10274577;28;20034;-69
2023/07/29 10:51:34;;;;;;;2.78;1.70;;;;;;;21.07;100.00;100685.72;10290422;28;20058;-69
2023/07/29 10:56:34;;;;;;;2.35;2.17;;;;;;;21.72;100.00;100685.22;10292034;28;20116;-69
2023/07/29 11:01:35;;;;;;;5.47;3.03;;;;;;;22.39;100.00;100675.72;10274306;28;20085;-69
2023/07/29 11:07:04;;;;;;;2.05;1.58;;;;;;;21.54;100.00;100676.44;10292166;28;20039;-69
2023/07/29 11:12:26;;;;;;;2.60;1.95;;;;;;;21.47;100.00;100691.56;10276498;28;20443;-69
2023/07/29 11:17:26;;;;;;;1.83;1.73;;;;;;;21.44;100.00;100683.84;10297514;28;20174;-69
2023/07/29 11:22:27;;;;;;;2.00;1.90;;;;;;;21.46;100.00;100685.22;10298028;28;20098;-69
2023/07/29 11:27:27;;;;;;;1.35;1.35;;;;;;;21.23;100.00;100685.75;10281025;28;20106;-69
2023/07/29 11:32:27;;;;;;;2.22;2.03;;;;;;;21.42;100.00;100688.81;10299981;28;20058;-71
2023/07/29 11:37:28;;;;;;;2.38;1.92;;;;;;;22.04;100.00;100690.41;10296568;28;20496;-68
2023/07/29 11:42:28;;;;;;;1.95;1.85;;;;;;;23.01;100.00;100686.50;10297786;28;20042;-68
2023/07/29 11:47:29;;;;;;;2.33;2.15;;;;;;;23.45;100.00;100697.47;10265096;28;20034;-68
2023/07/29 11:52:31;;;;;;;7.55;2.35;;;;;;;22.73;100.00;100691.56;10297717;28;20062;-68
2023/07/29 11:57:33;;;;;;;3.33;2.28;;;;;;;21.70;100.00;100692.97;10296494;28;20501;-68
2023/07/29 12:02:35;;;;;;;4.00;1.95;;;;;;;21.20;100.00;100700.06;10296802;28;20442;-68
2023/07/29 12:07:37;;;;;;;3.13;2.80;;;;;;;22.43;100.00;100685.09;10279841;28;20030;-68
2023/07/29 12:12:46;;;;;;;2.78;1.90;;;;;;;25.08;100.00;100672.72;10279235;28;20031;-68
2023/07/29 12:17:46;;;;;;;2.17;1.75;;;;;;;24.46;100.00;100681.03;10279589;28;20088;-68
2023/07/29 12:22:52;;;;;;;3.35;1.95;;;;;;;23.80;100.00;100678.97;10293845;28;20101;-68
2023/07/29 12:27:52;;;;;;;4.63;2.13;;;;;;;25.26;100.00;100682.97;10297038;28;20118;-68
2023/07/29 12:32:52;;;;;;;5.47;2.72;;;;;;;25.84;100.00;100675.38;10279858;28;20391;-68
2023/07/29 12:37:59;;;;;;;1.40;1.33;;;;;;;25.49;100.00;100667.38;10297011;28;20062;-68
2023/07/29 12:43:00;;;;;;;2.00;1.80;;;;;;;26.20;100.00;100665.25;10295391;28;20096;-68
2023/07/29 12:48:00;;;;;;;1.48;1.33;;;;;;;25.72;100.00;100676.66;10261303;28;20424;-68
2023/07/29 12:53:01;;;;;;;1.23;1.23;;;;;;;26.46;100.00;100666.69;10294331;28;20034;-68
2023/07/29 12:58:01;;;;;;;1.30;1.20;;;;;;;26.74;100.00;100670.25;10295879;28;20043;-69
2023/07/29 13:03:05;;;;;;;1.60;1.50;;;;;;;26.59;100.00;100674.19;10294687;28;20455;-68
2023/07/29 13:08:05;;;;;;;3.13;1.90;;;;;;;26.80;100.00;100666.22;10295192;28;20121;-68
2023/07/29 13:13:06;;;;;;;2.22;1.88;;;;;;;26.38;100.00;100673.75;10295178;28;20106;-69
2023/07/29 13:18:06;;;;;;;2.08;1.90;;;;;;;26.35;100.00;100671.59;10277053;28;20470;-69
2023/07/29 13:23:07;;;;;;;6.03;2.05;;;;;;;27.23;100.00;100668.59;10294117;28;20038;-69
2023/07/29 13:28:09;;;;;;;14.75;1.95;;;;;;;26.03;100.00;100665.00;10293280;28;20089;-69
2023/07/29 13:33:09;;;;;;;3.55;1.90;;;;;;;26.57;100.00;100668.94;10275201;28;20095;-69
2023/07/29 13:38:11;;;;;;;2.00;1.63;;;;;;;26.27;100.00;100664.00;10292903;28;20137;-69
2023/07/29 13:43:11;;;;;;;1.77;1.67;;;;;;;26.88;94.59;100668.28;10293517;28;20441;-69
2023/07/29 13:48:11;;;;;;;4.10;2.22;;;;;;;26.93;89.66;100667.31;10293308;28;20089;-69
2023/07/29 13:53:12;;;;;;;1.75;1.65;;;;;;;27.43;89.88;100665.31;10292064;28;20225;-69
2023/07/29 13:58:12;;;;;;;2.05;1.95;;;;;;;26.17;83.23;100665.84;10292548;28;20046;-68
2023/07/29 14:03:12;;;;;;;2.22;2.03;;;;;;;26.17;92.56;100657.53;10293135;28;20113;-68
2023/07/29 14:08:13;;;;;;;6.68;2.55;;;;;;;26.26;83.86;100668.75;10292169;28;20046;-68
2023/07/29 14:13:13;;;;;;;3.47;1.52;;;;;;;26.53;98.10;100662.38;10291701;28;20097;-68
2023/07/29 14:18:14;;;;;;;1.80;1.47;;;;;;;26.52;88.90;100657.97;10292669;28;20035;-68
2023/07/29 14:23:14;;;;;;;1.40;1.13;;;;;;;26.38;97.66;100660.69;10290804;28;20261;-68
2023/07/29 14:28:14;;;;;;;0.98;0.98;;;;;;;26.65;82.85;100673.78;10291352;28;20097;-68
2023/07/29 14:33:15;;;;;;;2.53;1.98;;;;;;;26.39;90.02;100661.53;10292157;28;20050;-69
2023/07/29 14:38:15;;;;;;;2.78;2.17;;;;;;;26.09;96.54;100663.78;10292074;28;20035;-68
2023/07/29 14:43:16;;;;;;;5.47;1.92;;;;;;;25.62;89.54;100665.75;10291344;28;20419;-68
2023/07/29 14:48:16;;;;;;;3.55;2.45;;;;;;;25.57;98.37;100670.56;10263726;28;20043;-69
2023/07/29 14:53:16;;;;;;;3.30;2.13;;;;;;;25.96;91.60;100675.69;10281462;28;20109;-68
2023/07/29 14:58:17;;;;;;;2.35;2.22;;;;;;;25.62;88.20;100674.09;10299907;28;20043;-68
2023/07/29 15:03:17;;;;;;;4.97;2.60;;;;;;;25.62;91.37;100670.47;10298315;28;20118;-68
2023/07/29 15:08:18;;;;;;;4.47;1.77;;;;;;;25.39;92.10;100672.25;10300149;28;20069;-68
2023/07/29 15:13:18;;;;;;;1.48;1.38;;;;;;;25.18;93.16;100683.66;10298106;28;20038;-68
2023/07/29 15:18:18;;;;;;;4.60;2.20;;;;;;;24.55;95.24;100665.41;10298707;28;20541;-67
2023/07/29 15:23:19;;;;;;;1.88;1.77;;;;;;;24.53;91.71;100667.63;10298178;28;20125;-68
2023/07/29 15:28:19;;;;;;;4.97;1.83;;;;;;;24.53;94.45;100675.13;10297930;28;20042;-67
2023/07/29 15:33:19;;;;;;;1.88;1.77;;;;;;;24.43;81.81;100678.03;10298507;28;20465;-68
2023/07/29 15:38:20;;;;;;;6.80;2.80;;;;;;;24.01;79.63;100663.81;10298604;28;20113;-68
2023/07/29 15:43:20;;;;;;;1.98;1.88;;;;;;;23.91;84.26;100655.63;10297163;28;20039;-68
2023/07/29 15:48:21;;;;;;;7.47;2.67;;;;;;;23.92;83.54;100662.78;10295956;28;20035;-67
2023/07/29 15:53:21;;;;;;;3.42;1.90;;;;;;;23.65;84.31;100650.31;10298435;28;20391;-68
2023/07/29 15:58:21;;;;;;;4.68;1.85;;;;;;;23.52;85.58;100653.78;10279723;28;20066;-68
2023/07/29 16:03:22;;;;;;;5.50;2.47;;;;;;;23.49;84.06;100653.53;10296893;28;20100;-67
2023/07/29 16:08:22;;;;;;;2.75;1.67;;;;;;;23.36;76.53;100666.06;10297344;28;20043;-67
2023/07/29 16:13:23;;;;;;;3.75;2.92;;;;;;;23.23;76.36;100663.94;10298324;28;20038;-68
2023/07/29 16:18:24;;;;;;;4.97;2.25;;;;;;;23.24;69.90;100671.13;10279223;28;20046;-67
2023/07/29 16:23:24;;;;;;;5.45;2.70;;;;;;;22.95;72.57;100681.00;10294819;28;20053;-67
2023/07/29 16:28:25;;;;;;;4.68;3.10;;;;;;;22.41;78.90;100678.19;10296546;28;20114;-67
2023/07/29 16:33:25;;;;;;;11.02;2.92;;;;;;;22.11;85.10;100682.66;10296339;28;20030;-67
2023/07/29 16:38:26;;;;;;;8.60;2.85;;;;;;;21.88;80.23;100681.34;10297197;28;20117;-67
2023/07/29 16:43:26;;;;;;;4.53;2.83;;;;;;;21.53;82.00;100684.94;10296351;28;20075;-67
2023/07/29 16:48:26;;;;;;;6.78;3.13;;;;;;;21.18;80.00;100683.81;10295276;28;20501;-67
2023/07/29 16:53:27;;;;;;;2.95;2.20;;;;;;;21.01;86.58;100675.78;10296187;28;20042;-67
2023/07/29 16:58:27;;;;;;;15.43;3.15;;;;;;;20.95;88.71;100685.16;10295580;28;20057;-67
2023/07/29 17:03:27;;;;;;;5.35;4.03;;;;;;;21.00;88.19;100678.84;10277195;28;20422;-67
2023/07/29 17:08:28;;;;;;;8.90;2.78;;;;;;;20.98;87.45;100678.28;10293502;28;20346;-67
2023/07/29 17:13:28;;;;;;;10.10;3.47;;;;;;;20.81;91.35;100681.28;10297180;28;20031;-67
2023/07/29 17:18:29;;;;;;;14.18;3.70;;;;;;;20.74;91.57;100683.44;10268990;28;20382;-67
2023/07/29 17:23:29;;;;;;;10.68;3.35;;;;;;;20.72;94.57;100685.63;10260156;28;20078;-67
2023/07/29 17:28:30;;;;;;;3.45;3.13;;;;;;;20.71;94.55;100673.81;10276792;28;20030;-67
2023/07/29 17:33:30;;;;;;;15.77;3.88;;;;;;;20.70;97.74;100677.63;10293551;28;20419;-67
2023/07/29 17:38:30;;;;;;;12.75;4.88;;;;;;;20.58;97.96;100686.16;10294500;28;20049;-67
2023/07/29 17:43:31;;;;;;;6.85;3.03;;;;;;;20.34;100.00;100687.66;10258884;28;20051;-67
2023/07/29 17:48:32;;;;;;;8.70;3.60;;;;;;;20.37;100.00;100684.38;10275475;28;20137;-67
2023/07/29 17:53:32;;;;;;;6.50;4.05;;;;;;;20.23;100.00;100681.28;10258229;28;20042;-67
2023/07/29 17:58:32;;;;;;;6.55;4.03;;;;;;;20.09;100.00;100680.91;10274013;28;20053;-67
2023/07/29 18:03:33;;;;;;;12.45;5.10;;;;;;;19.99;100.00;100702.84;10292669;28;20039;-67
2023/07/29 18:08:34;;;;;;;10.60;4.75;;;;;;;19.90;100.00;100690.69;10289776;28;20058;-67
2023/07/29 18:13:35;;;;;;;7.88;4.45;;;;;;;19.81;100.00;100709.59;10290673;28;20418;-67
2023/07/29 18:18:35;;;;;;;14.55;4.40;;;;;;;19.86;100.00;100706.06;10289319;28;20070;-67
2023/07/29 18:23:36;;;;;;;16.13;6.22;;;;;;;19.89;100.00;100700.03;10288967;28;20046;-67
2023/07/29 18:28:36;;;;;;;11.40;5.32;;;;;;;19.76;100.00;100708.75;10254023;28;1086464;-66
2023/07/29 18:33:36;;;;;;;12.00;4.50;;;;;;;19.67;100.00;100709.22;10292022;28;20067;-67
2023/07/29 18:38:37;;;;;;;5.45;4.30;;;;;;;19.63;100.00;100713.56;10292978;28;20027;-67
2023/07/29 18:43:37;;;;;;;20.83;5.43;;;;;;;19.50;100.00;100719.50;10291488;28;20359;-67
2023/07/29 18:48:38;;;;;;;17.58;6.03;;;;;;;19.33;100.00;100710.53;10291808;28;20046;-67
2023/07/29 18:53:38;;;;;;;17.02;4.20;;;;;;;19.23;100.00;100717.59;10290740;28;20411;-67
2023/07/29 18:58:38;;;;;;;16.95;4.32;;;;;;;19.11;100.00;100719.66;10274289;28;20039;-67
2023/07/29 19:03:41;;;;;;;22.23;5.75;;;;;;;18.90;100.00;100720.53;10291006;28;20050;-67
2023/07/29 19:08:43;;;;;;;16.90;4.75;;;;;;;18.73;100.00;100729.69;10293472;28;20037;-67
2023/07/29 19:13:44;;;;;;;13.52;4.03;;;;;;;18.63;100.00;100737.72;10274243;28;20073;-67
2023/07/29 19:18:44;;;;;;;27.27;4.50;;;;;;;18.57;100.00;100734.09;10291408;28;20069;-67
2023/07/29 19:23:44;;;;;;;17.45;4.25;;;;;;;18.48;100.00;100741.13;10289911;28;20034;-67
2023/07/29 19:28:45;;;;;;;12.27;5.88;;;;;;;18.38;100.00;100742.88;10290904;28;20034;-67
2023/07/29 19:33:45;;;;;;;13.88;4.22;;;;;;;18.26;100.00;100735.59;10294616;28;20037;-67
2023/07/29 19:38:46;;;;;;;13.18;5.53;;;;;;;18.15;100.00;100747.50;10296339;28;20422;-67
2023/07/29 19:43:50;;;;;;;28.02;6.10;;;;;;;18.04;100.00;100751.16;10298107;28;20034;-67
2023/07/29 19:48:51;;;;;;;26.58;4.80;;;;;;;17.98;100.00;100752.16;10297644;28;20352;-67
2023/07/29 19:53:52;;;;;;;9.88;4.43;;;;;;;17.96;100.00;100760.63;10297653;28;20433;-67
2023/07/29 19:58:52;;;;;;;12.15;4.63;;;;;;;17.88;100.00;100770.09;10296947;28;20122;-67
2023/07/29 20:03:53;;;;;;;11.43;4.43;;;;;;;17.79;100.00;100771.59;10297007;28;20474;-67
2023/07/29 20:08:53;;;;;;;10.73;4.82;;;;;;;17.81;100.00;100772.19;10280652;28;20081;-67
2023/07/29 20:13:53;;;;;;;32.75;6.80;;;;;;;17.78;100.00;100786.38;10297364;28;20045;-67
2023/07/29 20:18:54;;;;;;;24.60;7.07;;;;;;;17.79;100.00;100784.47;10296158;28;20058;-68
2023/07/29 20:23:54;;;;;;;11.15;4.85;;;;;;;17.81;100.00;100774.09;10296948;28;20386;-67
2023/07/29 20:28:56;;;;;;;16.55;5.35;;;;;;;17.79;100.00;100781.72;10279803;28;20054;-66
2023/07/29 20:33:56;;;;;;;28.48;5.85;;;;;;;17.71;100.00;100780.22;10296403;28;20034;-67
2023/07/29 20:38:57;;;;;;;12.30;4.78;;;;;;;17.65;100.00;100784.75;10278399;28;20511;-67
2023/07/29 20:43:57;;;;;;;31.40;5.40;;;;;;;17.58;100.00;100777.75;10277175;28;20450;-67
2023/07/29 20:48:58;;;;;;;16.95;5.72;;;;;;;17.56;100.00;100771.72;10294975;28;20026;-67
2023/07/29 20:53:58;;;;;;;14.07;4.93;;;;;;;17.61;100.00;100785.47;10293844;28;20045;-67
2023/07/29 20:58:59;;;;;;;18.38;6.50;;;;;;;17.52;100.00;100779.59;10277483;28;20027;-67
2023/07/29 21:04:00;;;;;;;15.38;5.20;;;;;;;17.46;100.00;100782.50;10296629;28;20477;-67
2023/07/29 21:09:01;;;;;;;17.08;4.57;;;;;;;17.41;100.00;100791.44;10277665;28;20113;-67
2023/07/29 21:14:01;;;;;;;8.98;4.20;;;;;;;17.38;100.00;100791.91;10295158;28;20062;-67
2023/07/29 21:19:02;;;;;;;22.52;7.03;;;;;;;17.34;100.00;100791.59;10294232;28;20435;-67
2023/07/29 21:24:02;;;;;;;11.73;4.93;;;;;;;17.31;100.00;100783.84;10293925;28;20023;-67
2023/07/29 21:29:03;;;;;;;19.92;5.22;;;;;;;17.24;100.00;100783.19;10293214;28;20106;-66
2023/07/29 21:34:03;;;;;;;15.60;3.45;;;;;;;17.24;100.00;100785.91;10277715;28;20128;-67
2023/07/29 21:39:04;;;;;;;18.42;4.00;;;;;;;17.23;100.00;100794.34;10294733;28;20043;-67
2023/07/29 21:44:04;;;;;;;11.57;4.53;;;;;;;17.18;100.00;100787.72;10275894;28;20030;-67
2023/07/29 21:49:05;;;;;;;25.25;5.72;;;;;;;17.13;100.00;100792.25;10295294;28;20035;-67
2023/07/29 21:54:05;;;;;;;8.95;4.70;;;;;;;17.11;100.00;100780.75;10293307;28;20375;-67
2023/07/29 21:59:05;;;;;;;23.10;5.75;;;;;;;17.12;100.00;100779.66;10292710;28;20070;-67
2023/07/29 22:04:06;;;;;;;23.20;5.65;;;;;;;17.09;100.00;100783.72;10292671;28;20454;-67
2023/07/29 22:09:06;;;;;;;24.27;5.90;;;;;;;17.08;100.00;100792.16;10292167;28;20102;-67
2023/07/29 22:14:07;;;;;;;7.57;4.18;;;;;;;16.98;100.00;100783.78;10292531;28;20185;-67
2023/07/29 22:19:07;;;;;;;10.02;4.05;;;;;;;16.95;100.00;100796.84;10293312;28;20426;-67
2023/07/29 22:24:07;;;;;;;24.17;5.38;;;;;;;16.95;100.00;100788.63;10292151;28;20145;-67
2023/07/29 22:29:08;;;;;;;22.23;5.35;;;;;;;16.90;100.00;100780.31;10290494;28;20050;-66
2023/07/29 22:34:08;;;;;;;22.90;4.50;;;;;;;16.89;100.00;100783.31;10293067;28;20138;-66
2023/07/29 22:39:09;;;;;;;23.25;4.60;;;;;;;16.87;100.00;100791.75;10292269;28;20038;-66
2023/07/29 22:44:09;;;;;;;16.70;4.75;;;;;;;16.88;100.00;100784.38;10293654;28;20031;-67
2023/07/29 22:49:09;;;;;;;13.00;6.15;;;;;;;16.82;100.00;100780.72;10293068;28;20363;-67